sensor_id;sensor_type;location;lat;lon;timestamp;P1;durP1;ratioP1;P2;durP2;ratioP2
18176;SDS011;9213;50.858;3.964;2023-03-03T00:01:16;26.30;;;15.77;;
18176;SDS011;9213;50.858;3.964;2023-03-03T00:03:44;28.87;;;16.23;;
18176;SDS011;9213;50.858;3.964;2023-03-03T00:06:13;27.60;;;15.00;;
18176;SDS011;9213;50.858;3.964;2023-03-03T00:08:40;29.07;;;16.17;;
18176;SDS011;9213;50.858;3.964;2023-03-03T00:11:07;26.50;;;15.47;;
18176;SDS011;9213;50.858;3.964;2023-03-03T00:13:38;27.00;;;15.50;;
18176;SDS011;9213;50.858;3.964;2023-03-03T00:16:12;25.07;;;15.00;;
18176;SDS011;9213;50.858;3.964;2023-03-03T00:18:42;29.20;;;16.23;;
18176;SDS011;9213;50.858;3.964;2023-03-03T00:21:18;26.07;;;14.87;;
18176;SDS011;9213;50.858;3.964;2023-03-03T00:23:53;29.03;;;15.90;;
18176;SDS011;9213;50.858;3.964;2023-03-03T00:26:25;26.03;;;15.03;;
18176;SDS011;9213;50.858;3.964;2023-03-03T00:28:55;30.33;;;16.27;;
18176;SDS011;9213;50.858;3.964;2023-03-03T00:31:25;25.50;;;14.90;;
18176;SDS011;9213;50.858;3.964;2023-03-03T00:34:02;26.20;;;16.00;;
18176;SDS011;9213;50.858;3.964;2023-03-03T00:36:50;28.10;;;16.63;;
18176;SDS011;9213;50.858;3.964;2023-03-03T00:39:22;29.37;;;17.03;;
18176;SDS011;9213;50.858;3.964;2023-03-03T00:41:54;25.60;;;15.57;;
18176;SDS011;9213;50.858;3.964;2023-03-03T00:44:35;25.10;;;15.43;;
18176;SDS011;9213;50.858;3.964;2023-03-03T00:49:52;27.93;;;15.27;;
18176;SDS011;9213;50.858;3.964;2023-03-03T00:52:21;27.10;;;16.43;;
18176;SDS011;9213;50.858;3.964;2023-03-03T00:54:53;28.50;;;15.97;;
18176;SDS011;9213;50.858;3.964;2023-03-03T00:57:20;31.37;;;16.70;;
18176;SDS011;9213;50.858;3.964;2023-03-03T00:59:47;27.40;;;15.27;;
18176;SDS011;9213;50.858;3.964;2023-03-03T01:02:14;30.07;;;17.00;;
18176;SDS011;9213;50.858;3.964;2023-03-03T01:04:41;31.27;;;17.37;;
18176;SDS011;9213;50.858;3.964;2023-03-03T01:07:13;29.90;;;17.17;;
18176;SDS011;9213;50.858;3.964;2023-03-03T01:09:42;31.80;;;17.57;;
18176;SDS011;9213;50.858;3.964;2023-03-03T01:12:09;27.53;;;16.83;;
18176;SDS011;9213;50.858;3.964;2023-03-03T01:14:37;33.13;;;16.90;;
18176;SDS011;9213;50.858;3.964;2023-03-03T01:17:04;33.60;;;18.13;;
18176;SDS011;9213;50.858;3.964;2023-03-03T01:19:31;31.23;;;16.67;;
18176;SDS011;9213;50.858;3.964;2023-03-03T01:21:58;31.37;;;17.17;;
18176;SDS011;9213;50.858;3.964;2023-03-03T01:24:25;31.43;;;17.87;;
18176;SDS011;9213;50.858;3.964;2023-03-03T01:26:53;34.37;;;17.87;;
18176;SDS011;9213;50.858;3.964;2023-03-03T01:29:20;33.53;;;18.00;;
18176;SDS011;9213;50.858;3.964;2023-03-03T01:31:47;34.37;;;16.90;;
18176;SDS011;9213;50.858;3.964;2023-03-03T01:34:14;29.50;;;16.50;;
18176;SDS011;9213;50.858;3.964;2023-03-03T01:36:41;34.27;;;18.47;;
18176;SDS011;9213;50.858;3.964;2023-03-03T01:39:09;34.33;;;18.43;;
18176;SDS011;9213;50.858;3.964;2023-03-03T01:41:36;34.43;;;18.07;;
18176;SDS011;9213;50.858;3.964;2023-03-03T01:44:04;33.73;;;18.33;;
18176;SDS011;9213;50.858;3.964;2023-03-03T01:46:45;31.63;;;17.33;;
18176;SDS011;9213;50.858;3.964;2023-03-03T01:49:17;35.73;;;17.73;;
18176;SDS011;9213;50.858;3.964;2023-03-03T01:51:48;41.40;;;19.53;;
18176;SDS011;9213;50.858;3.964;2023-03-03T01:54:21;31.73;;;17.97;;
18176;SDS011;9213;50.858;3.964;2023-03-03T01:56:54;36.07;;;17.83;;
18176;SDS011;9213;50.858;3.964;2023-03-03T01:59:26;37.30;;;18.03;;
18176;SDS011;9213;50.858;3.964;2023-03-03T02:01:54;37.63;;;19.10;;
18176;SDS011;9213;50.858;3.964;2023-03-03T02:04:21;34.47;;;17.97;;
18176;SDS011;9213;50.858;3.964;2023-03-03T02:06:53;34.57;;;18.63;;
18176;SDS011;9213;50.858;3.964;2023-03-03T02:09:24;36.10;;;19.23;;
18176;SDS011;9213;50.858;3.964;2023-03-03T02:11:58;37.13;;;18.40;;
18176;SDS011;9213;50.858;3.964;2023-03-03T02:14:29;35.37;;;18.57;;
18176;SDS011;9213;50.858;3.964;2023-03-03T02:16:56;37.27;;;18.00;;
18176;SDS011;9213;50.858;3.964;2023-03-03T02:19:26;39.47;;;19.67;;
18176;SDS011;9213;50.858;3.964;2023-03-03T02:22:00;42.27;;;19.67;;
18176;SDS011;9213;50.858;3.964;2023-03-03T02:24:29;38.30;;;19.83;;
18176;SDS011;9213;50.858;3.964;2023-03-03T02:27:01;35.47;;;19.47;;
18176;SDS011;9213;50.858;3.964;2023-03-03T02:29:28;40.67;;;18.80;;
18176;SDS011;9213;50.858;3.964;2023-03-03T02:31:55;35.70;;;19.57;;
18176;SDS011;9213;50.858;3.964;2023-03-03T02:34:22;36.30;;;18.10;;
18176;SDS011;9213;50.858;3.964;2023-03-03T02:36:49;36.27;;;18.73;;
18176;SDS011;9213;50.858;3.964;2023-03-03T02:39:17;38.43;;;19.30;;
18176;SDS011;9213;50.858;3.964;2023-03-03T02:41:47;40.10;;;20.17;;
18176;SDS011;9213;50.858;3.964;2023-03-03T02:44:18;38.80;;;20.67;;
18176;SDS011;9213;50.858;3.964;2023-03-03T02:46:47;40.57;;;20.83;;
18176;SDS011;9213;50.858;3.964;2023-03-03T02:49:17;47.33;;;22.07;;
18176;SDS011;9213;50.858;3.964;2023-03-03T02:51:46;44.10;;;20.83;;
18176;SDS011;9213;50.858;3.964;2023-03-03T02:54:14;45.47;;;21.63;;
18176;SDS011;9213;50.858;3.964;2023-03-03T02:56:43;45.90;;;21.93;;
18176;SDS011;9213;50.858;3.964;2023-03-03T02:59:11;45.07;;;21.73;;
18176;SDS011;9213;50.858;3.964;2023-03-03T03:01:39;47.03;;;22.10;;
18176;SDS011;9213;50.858;3.964;2023-03-03T03:04:07;49.47;;;23.57;;
18176;SDS011;9213;50.858;3.964;2023-03-03T03:06:36;48.80;;;23.03;;
18176;SDS011;9213;50.858;3.964;2023-03-03T03:09:03;49.37;;;23.87;;
18176;SDS011;9213;50.858;3.964;2023-03-03T03:11:32;46.60;;;22.73;;
18176;SDS011;9213;50.858;3.964;2023-03-03T03:13:59;48.10;;;21.83;;
18176;SDS011;9213;50.858;3.964;2023-03-03T03:16:26;54.33;;;23.80;;
18176;SDS011;9213;50.858;3.964;2023-03-03T03:18:55;50.90;;;23.53;;
18176;SDS011;9213;50.858;3.964;2023-03-03T03:21:22;48.70;;;24.20;;
18176;SDS011;9213;50.858;3.964;2023-03-03T03:23:49;55.33;;;24.87;;
18176;SDS011;9213;50.858;3.964;2023-03-03T03:26:15;51.00;;;23.90;;
18176;SDS011;9213;50.858;3.964;2023-03-03T03:28:45;50.60;;;23.70;;
18176;SDS011;9213;50.858;3.964;2023-03-03T03:31:12;53.50;;;23.07;;
18176;SDS011;9213;50.858;3.964;2023-03-03T03:33:39;49.30;;;24.03;;
18176;SDS011;9213;50.858;3.964;2023-03-03T03:36:08;53.03;;;24.27;;
18176;SDS011;9213;50.858;3.964;2023-03-03T03:38:35;58.47;;;26.07;;
18176;SDS011;9213;50.858;3.964;2023-03-03T03:41:02;60.20;;;26.13;;
18176;SDS011;9213;50.858;3.964;2023-03-03T03:43:31;56.57;;;24.83;;
18176;SDS011;9213;50.858;3.964;2023-03-03T03:45:58;52.83;;;25.53;;
18176;SDS011;9213;50.858;3.964;2023-03-03T03:48:25;53.47;;;25.63;;
18176;SDS011;9213;50.858;3.964;2023-03-03T03:50:52;60.10;;;25.43;;
18176;SDS011;9213;50.858;3.964;2023-03-03T03:53:21;56.87;;;26.23;;
18176;SDS011;9213;50.858;3.964;2023-03-03T03:55:48;56.57;;;25.47;;
18176;SDS011;9213;50.858;3.964;2023-03-03T03:58:15;54.87;;;25.07;;
18176;SDS011;9213;50.858;3.964;2023-03-03T04:00:43;55.40;;;26.03;;
18176;SDS011;9213;50.858;3.964;2023-03-03T04:03:11;62.70;;;26.07;;
18176;SDS011;9213;50.858;3.964;2023-03-03T04:05:39;61.27;;;27.40;;
18176;SDS011;9213;50.858;3.964;2023-03-03T04:08:06;60.87;;;25.50;;
18176;SDS011;9213;50.858;3.964;2023-03-03T04:10:35;73.90;;;29.17;;
18176;SDS011;9213;50.858;3.964;2023-03-03T04:13:02;64.67;;;27.20;;
18176;SDS011;9213;50.858;3.964;2023-03-03T04:15:30;63.27;;;27.50;;
18176;SDS011;9213;50.858;3.964;2023-03-03T04:17:57;61.90;;;25.87;;
18176;SDS011;9213;50.858;3.964;2023-03-03T04:20:24;66.53;;;28.70;;
18176;SDS011;9213;50.858;3.964;2023-03-03T04:22:51;61.93;;;26.50;;
18176;SDS011;9213;50.858;3.964;2023-03-03T04:25:18;74.37;;;28.40;;
18176;SDS011;9213;50.858;3.964;2023-03-03T04:27:46;65.60;;;27.27;;
18176;SDS011;9213;50.858;3.964;2023-03-03T04:30:14;68.03;;;27.77;;
18176;SDS011;9213;50.858;3.964;2023-03-03T04:32:41;65.43;;;27.50;;
18176;SDS011;9213;50.858;3.964;2023-03-03T04:35:08;63.43;;;26.47;;
18176;SDS011;9213;50.858;3.964;2023-03-03T04:37:36;69.40;;;28.07;;
18176;SDS011;9213;50.858;3.964;2023-03-03T04:40:04;62.90;;;27.33;;
18176;SDS011;9213;50.858;3.964;2023-03-03T04:42:33;66.07;;;29.27;;
18176;SDS011;9213;50.858;3.964;2023-03-03T04:45:01;64.80;;;27.53;;
18176;SDS011;9213;50.858;3.964;2023-03-03T04:47:29;68.63;;;28.90;;
18176;SDS011;9213;50.858;3.964;2023-03-03T04:49:56;59.00;;;26.43;;
18176;SDS011;9213;50.858;3.964;2023-03-03T04:52:23;59.13;;;26.50;;
18176;SDS011;9213;50.858;3.964;2023-03-03T04:54:50;66.00;;;27.33;;
18176;SDS011;9213;50.858;3.964;2023-03-03T04:57:17;63.27;;;28.17;;
18176;SDS011;9213;50.858;3.964;2023-03-03T04:59:44;68.43;;;27.63;;
18176;SDS011;9213;50.858;3.964;2023-03-03T05:02:12;65.33;;;28.07;;
18176;SDS011;9213;50.858;3.964;2023-03-03T05:04:39;63.77;;;27.27;;
18176;SDS011;9213;50.858;3.964;2023-03-03T05:07:06;59.67;;;27.00;;
18176;SDS011;9213;50.858;3.964;2023-03-03T05:09:34;60.43;;;27.10;;
18176;SDS011;9213;50.858;3.964;2023-03-03T05:12:01;65.63;;;27.90;;
18176;SDS011;9213;50.858;3.964;2023-03-03T05:14:28;63.93;;;27.87;;
18176;SDS011;9213;50.858;3.964;2023-03-03T05:16:55;66.90;;;28.60;;
18176;SDS011;9213;50.858;3.964;2023-03-03T05:19:24;68.73;;;28.63;;
18176;SDS011;9213;50.858;3.964;2023-03-03T05:21:51;60.37;;;27.17;;
18176;SDS011;9213;50.858;3.964;2023-03-03T05:24:18;57.50;;;26.67;;
18176;SDS011;9213;50.858;3.964;2023-03-03T05:26:45;58.77;;;26.53;;
18176;SDS011;9213;50.858;3.964;2023-03-03T05:29:12;50.93;;;24.07;;
18176;SDS011;9213;50.858;3.964;2023-03-03T05:31:39;64.97;;;28.47;;
18176;SDS011;9213;50.858;3.964;2023-03-03T05:34:06;60.73;;;28.90;;
18176;SDS011;9213;50.858;3.964;2023-03-03T05:36:35;64.83;;;28.70;;
18176;SDS011;9213;50.858;3.964;2023-03-03T05:39:02;65.90;;;29.30;;
18176;SDS011;9213;50.858;3.964;2023-03-03T05:41:29;69.30;;;32.60;;
18176;SDS011;9213;50.858;3.964;2023-03-03T05:43:56;82.27;;;37.23;;
18176;SDS011;9213;50.858;3.964;2023-03-03T05:46:23;90.87;;;37.03;;
18176;SDS011;9213;50.858;3.964;2023-03-03T05:48:49;88.40;;;36.73;;
18176;SDS011;9213;50.858;3.964;2023-03-03T05:51:16;93.63;;;37.10;;
18176;SDS011;9213;50.858;3.964;2023-03-03T05:53:45;104.93;;;41.27;;
18176;SDS011;9213;50.858;3.964;2023-03-03T05:56:12;96.70;;;38.87;;
18176;SDS011;9213;50.858;3.964;2023-03-03T05:58:38;108.03;;;41.93;;
18176;SDS011;9213;50.858;3.964;2023-03-03T06:01:05;105.73;;;41.80;;
18176;SDS011;9213;50.858;3.964;2023-03-03T06:03:32;91.23;;;37.17;;
18176;SDS011;9213;50.858;3.964;2023-03-03T06:05:59;67.63;;;32.90;;
18176;SDS011;9213;50.858;3.964;2023-03-03T06:08:26;73.37;;;31.97;;
18176;SDS011;9213;50.858;3.964;2023-03-03T06:10:56;69.80;;;30.77;;
18176;SDS011;9213;50.858;3.964;2023-03-03T06:13:23;65.23;;;27.87;;
18176;SDS011;9213;50.858;3.964;2023-03-03T06:15:49;59.83;;;27.37;;
18176;SDS011;9213;50.858;3.964;2023-03-03T06:18:16;57.20;;;27.57;;
18176;SDS011;9213;50.858;3.964;2023-03-03T06:20:43;56.77;;;26.87;;
18176;SDS011;9213;50.858;3.964;2023-03-03T06:23:10;54.50;;;24.33;;
18176;SDS011;9213;50.858;3.964;2023-03-03T06:25:37;55.90;;;25.60;;
18176;SDS011;9213;50.858;3.964;2023-03-03T06:28:06;58.20;;;25.50;;
18176;SDS011;9213;50.858;3.964;2023-03-03T06:30:33;72.20;;;30.37;;
18176;SDS011;9213;50.858;3.964;2023-03-03T06:33:00;65.27;;;27.60;;
18176;SDS011;9213;50.858;3.964;2023-03-03T06:35:27;59.17;;;26.27;;
18176;SDS011;9213;50.858;3.964;2023-03-03T06:37:54;60.20;;;26.77;;
18176;SDS011;9213;50.858;3.964;2023-03-03T06:40:20;60.67;;;25.50;;
18176;SDS011;9213;50.858;3.964;2023-03-03T06:42:47;60.57;;;26.77;;
18176;SDS011;9213;50.858;3.964;2023-03-03T06:45:16;66.73;;;28.73;;
18176;SDS011;9213;50.858;3.964;2023-03-03T06:47:43;54.30;;;25.13;;
18176;SDS011;9213;50.858;3.964;2023-03-03T06:50:10;50.30;;;23.67;;
18176;SDS011;9213;50.858;3.964;2023-03-03T06:52:38;62.97;;;27.73;;
18176;SDS011;9213;50.858;3.964;2023-03-03T06:55:09;59.27;;;25.67;;
18176;SDS011;9213;50.858;3.964;2023-03-03T06:57:38;57.83;;;23.80;;
18176;SDS011;9213;50.858;3.964;2023-03-03T07:00:12;53.47;;;24.63;;
18176;SDS011;9213;50.858;3.964;2023-03-03T07:02:50;50.83;;;21.57;;
18176;SDS011;9213;50.858;3.964;2023-03-03T07:05:22;51.43;;;23.30;;
18176;SDS011;9213;50.858;3.964;2023-03-03T07:07:51;51.63;;;24.07;;
18176;SDS011;9213;50.858;3.964;2023-03-03T07:10:22;47.73;;;22.63;;
18176;SDS011;9213;50.858;3.964;2023-03-03T07:12:51;50.10;;;21.80;;
18176;SDS011;9213;50.858;3.964;2023-03-03T07:15:21;49.60;;;23.17;;
18176;SDS011;9213;50.858;3.964;2023-03-03T07:17:54;49.67;;;23.13;;
18176;SDS011;9213;50.858;3.964;2023-03-03T07:20:24;51.30;;;22.23;;
18176;SDS011;9213;50.858;3.964;2023-03-03T07:22:57;36.83;;;18.07;;
18176;SDS011;9213;50.858;3.964;2023-03-03T07:25:25;46.17;;;21.47;;
18176;SDS011;9213;50.858;3.964;2023-03-03T07:27:57;51.00;;;22.20;;
18176;SDS011;9213;50.858;3.964;2023-03-03T07:30:37;49.07;;;20.00;;
18176;SDS011;9213;50.858;3.964;2023-03-03T07:33:07;41.87;;;18.90;;
18176;SDS011;9213;50.858;3.964;2023-03-03T07:35:44;42.20;;;20.53;;
18176;SDS011;9213;50.858;3.964;2023-03-03T07:38:22;43.80;;;20.37;;
18176;SDS011;9213;50.858;3.964;2023-03-03T07:40:51;39.43;;;18.93;;
18176;SDS011;9213;50.858;3.964;2023-03-03T07:43:29;43.60;;;19.23;;
18176;SDS011;9213;50.858;3.964;2023-03-03T07:46:02;40.13;;;17.83;;
18176;SDS011;9213;50.858;3.964;2023-03-03T07:48:56;37.07;;;19.23;;
18176;SDS011;9213;50.858;3.964;2023-03-03T07:51:24;38.70;;;18.53;;
18176;SDS011;9213;50.858;3.964;2023-03-03T07:53:54;39.30;;;19.23;;
18176;SDS011;9213;50.858;3.964;2023-03-03T07:56:38;39.13;;;19.10;;
18176;SDS011;9213;50.858;3.964;2023-03-03T07:59:08;38.00;;;18.57;;
18176;SDS011;9213;50.858;3.964;2023-03-03T08:01:46;39.90;;;18.80;;
18176;SDS011;9213;50.858;3.964;2023-03-03T08:04:22;35.33;;;16.97;;
18176;SDS011;9213;50.858;3.964;2023-03-03T08:06:50;35.77;;;17.50;;
18176;SDS011;9213;50.858;3.964;2023-03-03T08:09:28;30.60;;;13.90;;
18176;SDS011;9213;50.858;3.964;2023-03-03T08:12:01;29.30;;;15.03;;
18176;SDS011;9213;50.858;3.964;2023-03-03T08:14:54;36.83;;;16.87;;
18176;SDS011;9213;50.858;3.964;2023-03-03T08:17:25;31.63;;;15.97;;
18176;SDS011;9213;50.858;3.964;2023-03-03T08:20:01;33.03;;;16.43;;
18176;SDS011;9213;50.858;3.964;2023-03-03T08:22:49;31.63;;;15.90;;
18176;SDS011;9213;50.858;3.964;2023-03-03T08:25:16;28.10;;;14.27;;
18176;SDS011;9213;50.858;3.964;2023-03-03T08:27:43;29.33;;;14.27;;
18176;SDS011;9213;50.858;3.964;2023-03-03T08:30:10;25.47;;;13.07;;
18176;SDS011;9213;50.858;3.964;2023-03-03T08:32:39;26.27;;;13.53;;
18176;SDS011;9213;50.858;3.964;2023-03-03T08:35:06;27.90;;;13.70;;
18176;SDS011;9213;50.858;3.964;2023-03-03T08:37:33;25.87;;;13.27;;
18176;SDS011;9213;50.858;3.964;2023-03-03T08:40:00;24.33;;;13.17;;
18176;SDS011;9213;50.858;3.964;2023-03-03T08:42:27;27.67;;;13.93;;
18176;SDS011;9213;50.858;3.964;2023-03-03T08:44:55;25.50;;;12.93;;
18176;SDS011;9213;50.858;3.964;2023-03-03T08:47:22;28.97;;;14.47;;
18176;SDS011;9213;50.858;3.964;2023-03-03T08:49:50;25.87;;;13.47;;
18176;SDS011;9213;50.858;3.964;2023-03-03T08:52:18;27.67;;;13.97;;
18176;SDS011;9213;50.858;3.964;2023-03-03T08:54:45;25.27;;;13.73;;
18176;SDS011;9213;50.858;3.964;2023-03-03T08:57:12;32.00;;;15.80;;
18176;SDS011;9213;50.858;3.964;2023-03-03T08:59:39;28.00;;;15.77;;
18176;SDS011;9213;50.858;3.964;2023-03-03T09:02:06;32.87;;;15.43;;
18176;SDS011;9213;50.858;3.964;2023-03-03T09:04:34;29.60;;;16.50;;
18176;SDS011;9213;50.858;3.964;2023-03-03T09:07:02;29.43;;;15.43;;
18176;SDS011;9213;50.858;3.964;2023-03-03T09:09:29;28.67;;;15.57;;
18176;SDS011;9213;50.858;3.964;2023-03-03T09:11:57;24.83;;;14.00;;
18176;SDS011;9213;50.858;3.964;2023-03-03T09:14:27;24.97;;;13.40;;
18176;SDS011;9213;50.858;3.964;2023-03-03T09:16:55;26.53;;;13.23;;
18176;SDS011;9213;50.858;3.964;2023-03-03T09:19:23;26.90;;;14.13;;
18176;SDS011;9213;50.858;3.964;2023-03-03T09:21:52;23.10;;;13.37;;
18176;SDS011;9213;50.858;3.964;2023-03-03T09:24:25;32.00;;;14.87;;
18176;SDS011;9213;50.858;3.964;2023-03-03T09:26:53;29.40;;;14.03;;
18176;SDS011;9213;50.858;3.964;2023-03-03T09:29:23;27.60;;;15.37;;
18176;SDS011;9213;50.858;3.964;2023-03-03T09:31:53;28.90;;;15.07;;
18176;SDS011;9213;50.858;3.964;2023-03-03T09:34:22;29.10;;;15.53;;
18176;SDS011;9213;50.858;3.964;2023-03-03T09:36:51;25.17;;;14.17;;
18176;SDS011;9213;50.858;3.964;2023-03-03T09:39:20;29.57;;;15.93;;
18176;SDS011;9213;50.858;3.964;2023-03-03T09:42:01;28.07;;;15.93;;
18176;SDS011;9213;50.858;3.964;2023-03-03T09:44:47;28.93;;;15.07;;
18176;SDS011;9213;50.858;3.964;2023-03-03T09:47:34;26.57;;;13.80;;
18176;SDS011;9213;50.858;3.964;2023-03-03T09:50:11;29.60;;;14.90;;
18176;SDS011;9213;50.858;3.964;2023-03-03T09:52:47;26.23;;;13.93;;
18176;SDS011;9213;50.858;3.964;2023-03-03T09:55:34;33.70;;;17.40;;
18176;SDS011;9213;50.858;3.964;2023-03-03T09:58:17;33.13;;;16.40;;
18176;SDS011;9213;50.858;3.964;2023-03-03T10:00:58;28.07;;;14.07;;
18176;SDS011;9213;50.858;3.964;2023-03-03T10:03:42;31.17;;;16.50;;
18176;SDS011;9213;50.858;3.964;2023-03-03T10:06:24;34.93;;;19.10;;
18176;SDS011;9213;50.858;3.964;2023-03-03T10:09:01;33.90;;;15.40;;
18176;SDS011;9213;50.858;3.964;2023-03-03T10:11:37;28.03;;;14.87;;
18176;SDS011;9213;50.858;3.964;2023-03-03T10:14:17;41.10;;;21.63;;
18176;SDS011;9213;50.858;3.964;2023-03-03T10:17:05;32.87;;;18.37;;
18176;SDS011;9213;50.858;3.964;2023-03-03T10:19:46;28.40;;;14.63;;
18176;SDS011;9213;50.858;3.964;2023-03-03T10:22:23;25.67;;;13.40;;
18176;SDS011;9213;50.858;3.964;2023-03-03T10:25:03;29.33;;;14.93;;
18176;SDS011;9213;50.858;3.964;2023-03-03T10:27:53;26.03;;;14.47;;
18176;SDS011;9213;50.858;3.964;2023-03-03T10:30:37;28.67;;;14.47;;
18176;SDS011;9213;50.858;3.964;2023-03-03T10:33:11;25.23;;;14.43;;
18176;SDS011;9213;50.858;3.964;2023-03-03T10:38:51;27.20;;;15.57;;
18176;SDS011;9213;50.858;3.964;2023-03-03T10:41:31;23.77;;;13.60;;
18176;SDS011;9213;50.858;3.964;2023-03-03T10:44:08;26.70;;;13.70;;
18176;SDS011;9213;50.858;3.964;2023-03-03T10:49:55;28.17;;;14.60;;
18176;SDS011;9213;50.858;3.964;2023-03-03T10:52:30;26.80;;;15.93;;
18176;SDS011;9213;50.858;3.964;2023-03-03T10:55:24;28.90;;;15.60;;
18176;SDS011;9213;50.858;3.964;2023-03-03T10:58:04;26.37;;;14.93;;
18176;SDS011;9213;50.858;3.964;2023-03-03T11:00:55;26.93;;;15.20;;
18176;SDS011;9213;50.858;3.964;2023-03-03T11:06:33;26.03;;;14.90;;
18176;SDS011;9213;50.858;3.964;2023-03-03T11:09:09;27.03;;;14.77;;
18176;SDS011;9213;50.858;3.964;2023-03-03T11:11:58;27.17;;;15.20;;
18176;SDS011;9213;50.858;3.964;2023-03-03T11:14:36;24.83;;;14.97;;
18176;SDS011;9213;50.858;3.964;2023-03-03T11:17:12;25.27;;;14.27;;
18176;SDS011;9213;50.858;3.964;2023-03-03T11:19:58;24.47;;;13.87;;
18176;SDS011;9213;50.858;3.964;2023-03-03T11:22:35;25.93;;;13.50;;
18176;SDS011;9213;50.858;3.964;2023-03-03T11:25:15;23.17;;;13.30;;
18176;SDS011;9213;50.858;3.964;2023-03-03T11:27:59;22.87;;;13.17;;
18176;SDS011;9213;50.858;3.964;2023-03-03T11:30:40;24.07;;;13.10;;
18176;SDS011;9213;50.858;3.964;2023-03-03T11:33:16;21.30;;;12.90;;
18176;SDS011;9213;50.858;3.964;2023-03-03T11:35:49;21.17;;;12.10;;
18176;SDS011;9213;50.858;3.964;2023-03-03T11:38:39;24.17;;;12.73;;
18176;SDS011;9213;50.858;3.964;2023-03-03T11:41:13;23.67;;;12.53;;
18176;SDS011;9213;50.858;3.964;2023-03-03T11:43:49;21.23;;;12.70;;
18176;SDS011;9213;50.858;3.964;2023-03-03T11:46:19;22.53;;;14.33;;
18176;SDS011;9213;50.858;3.964;2023-03-03T11:48:52;21.23;;;12.67;;
18176;SDS011;9213;50.858;3.964;2023-03-03T11:51:26;23.00;;;12.93;;
18176;SDS011;9213;50.858;3.964;2023-03-03T11:54:04;21.63;;;13.50;;
18176;SDS011;9213;50.858;3.964;2023-03-03T11:56:38;19.80;;;12.47;;
18176;SDS011;9213;50.858;3.964;2023-03-03T11:59:18;17.97;;;11.70;;
18176;SDS011;9213;50.858;3.964;2023-03-03T12:02:02;21.33;;;12.33;;
18176;SDS011;9213;50.858;3.964;2023-03-03T12:04:39;19.57;;;11.97;;
18176;SDS011;9213;50.858;3.964;2023-03-03T12:07:13;20.50;;;13.07;;
18176;SDS011;9213;50.858;3.964;2023-03-03T12:09:51;22.57;;;12.53;;
18176;SDS011;9213;50.858;3.964;2023-03-03T12:12:26;18.47;;;12.53;;
18176;SDS011;9213;50.858;3.964;2023-03-03T12:15:01;20.83;;;12.90;;
18176;SDS011;9213;50.858;3.964;2023-03-03T12:17:40;20.63;;;12.40;;
18176;SDS011;9213;50.858;3.964;2023-03-03T12:20:31;19.97;;;12.40;;
18176;SDS011;9213;50.858;3.964;2023-03-03T12:23:09;19.47;;;12.17;;
18176;SDS011;9213;50.858;3.964;2023-03-03T12:25:57;21.03;;;13.10;;
18176;SDS011;9213;50.858;3.964;2023-03-03T12:28:31;20.40;;;12.23;;
18176;SDS011;9213;50.858;3.964;2023-03-03T12:31:08;22.00;;;12.80;;
18176;SDS011;9213;50.858;3.964;2023-03-03T12:33:50;17.67;;;11.23;;
18176;SDS011;9213;50.858;3.964;2023-03-03T12:39:11;18.13;;;12.03;;
18176;SDS011;9213;50.858;3.964;2023-03-03T12:41:49;21.63;;;10.97;;
18176;SDS011;9213;50.858;3.964;2023-03-03T12:44:26;14.53;;;10.27;;
18176;SDS011;9213;50.858;3.964;2023-03-03T12:47:00;17.10;;;11.40;;
18176;SDS011;9213;50.858;3.964;2023-03-03T12:49:36;18.37;;;11.57;;
18176;SDS011;9213;50.858;3.964;2023-03-03T12:52:13;20.20;;;11.43;;
18176;SDS011;9213;50.858;3.964;2023-03-03T12:54:57;15.80;;;10.53;;
18176;SDS011;9213;50.858;3.964;2023-03-03T12:57:34;17.37;;;11.23;;
18176;SDS011;9213;50.858;3.964;2023-03-03T13:00:16;17.80;;;11.03;;
18176;SDS011;9213;50.858;3.964;2023-03-03T13:02:53;21.07;;;12.40;;
18176;SDS011;9213;50.858;3.964;2023-03-03T13:05:26;21.90;;;12.77;;
18176;SDS011;9213;50.858;3.964;2023-03-03T13:08:03;17.27;;;11.57;;
18176;SDS011;9213;50.858;3.964;2023-03-03T13:10:42;17.10;;;11.10;;
18176;SDS011;9213;50.858;3.964;2023-03-03T13:13:15;18.10;;;11.23;;
18176;SDS011;9213;50.858;3.964;2023-03-03T13:15:52;20.37;;;12.20;;
18176;SDS011;9213;50.858;3.964;2023-03-03T13:18:28;21.07;;;12.50;;
18176;SDS011;9213;50.858;3.964;2023-03-03T13:21:09;19.00;;;11.87;;
18176;SDS011;9213;50.858;3.964;2023-03-03T13:23:42;18.30;;;12.87;;
18176;SDS011;9213;50.858;3.964;2023-03-03T13:26:16;17.67;;;11.43;;
18176;SDS011;9213;50.858;3.964;2023-03-03T13:28:54;16.77;;;11.10;;
18176;SDS011;9213;50.858;3.964;2023-03-03T13:31:27;14.93;;;10.30;;
18176;SDS011;9213;50.858;3.964;2023-03-03T13:33:58;16.10;;;10.93;;
18176;SDS011;9213;50.858;3.964;2023-03-03T13:36:27;14.60;;;10.30;;
18176;SDS011;9213;50.858;3.964;2023-03-03T13:39:00;15.23;;;10.13;;
18176;SDS011;9213;50.858;3.964;2023-03-03T13:41:34;15.03;;;9.47;;
18176;SDS011;9213;50.858;3.964;2023-03-03T13:44:09;15.10;;;10.20;;
18176;SDS011;9213;50.858;3.964;2023-03-03T13:46:43;15.90;;;10.77;;
18176;SDS011;9213;50.858;3.964;2023-03-03T13:49:32;18.20;;;11.60;;
18176;SDS011;9213;50.858;3.964;2023-03-03T13:52:11;15.70;;;10.57;;
18176;SDS011;9213;50.858;3.964;2023-03-03T13:54:44;17.87;;;10.70;;
18176;SDS011;9213;50.858;3.964;2023-03-03T13:57:34;17.20;;;10.97;;
18176;SDS011;9213;50.858;3.964;2023-03-03T14:00:20;15.40;;;9.80;;
18176;SDS011;9213;50.858;3.964;2023-03-03T14:06:00;11.63;;;8.63;;
18176;SDS011;9213;50.858;3.964;2023-03-03T14:08:35;11.13;;;8.17;;
18176;SDS011;9213;50.858;3.964;2023-03-03T14:11:12;13.00;;;8.20;;
18176;SDS011;9213;50.858;3.964;2023-03-03T14:13:48;12.30;;;7.93;;
18176;SDS011;9213;50.858;3.964;2023-03-03T14:16:31;16.33;;;9.17;;
18176;SDS011;9213;50.858;3.964;2023-03-03T14:19:13;12.90;;;8.33;;
18176;SDS011;9213;50.858;3.964;2023-03-03T14:21:45;11.80;;;8.83;;
18176;SDS011;9213;50.858;3.964;2023-03-03T14:24:18;15.13;;;9.40;;
18176;SDS011;9213;50.858;3.964;2023-03-03T14:26:50;17.70;;;9.80;;
18176;SDS011;9213;50.858;3.964;2023-03-03T14:29:20;15.40;;;10.07;;
18176;SDS011;9213;50.858;3.964;2023-03-03T14:31:55;14.50;;;10.07;;
18176;SDS011;9213;50.858;3.964;2023-03-03T14:34:33;15.53;;;10.73;;
18176;SDS011;9213;50.858;3.964;2023-03-03T14:37:19;16.80;;;10.53;;
18176;SDS011;9213;50.858;3.964;2023-03-03T14:39:49;15.60;;;11.40;;
18176;SDS011;9213;50.858;3.964;2023-03-03T14:42:30;16.23;;;11.03;;
18176;SDS011;9213;50.858;3.964;2023-03-03T14:45:01;16.80;;;12.87;;
18176;SDS011;9213;50.858;3.964;2023-03-03T14:47:45;16.53;;;12.10;;
18176;SDS011;9213;50.858;3.964;2023-03-03T14:50:26;14.37;;;11.33;;
18176;SDS011;9213;50.858;3.964;2023-03-03T14:53:10;15.97;;;11.60;;
18176;SDS011;9213;50.858;3.964;2023-03-03T14:55:41;15.87;;;10.77;;
18176;SDS011;9213;50.858;3.964;2023-03-03T14:58:23;15.60;;;11.67;;
18176;SDS011;9213;50.858;3.964;2023-03-03T15:01:05;14.53;;;10.70;;
18176;SDS011;9213;50.858;3.964;2023-03-03T15:03:35;15.27;;;10.70;;
18176;SDS011;9213;50.858;3.964;2023-03-03T15:06:09;13.90;;;10.30;;
18176;SDS011;9213;50.858;3.964;2023-03-03T15:08:38;16.37;;;10.30;;
18176;SDS011;9213;50.858;3.964;2023-03-03T15:11:17;15.10;;;10.57;;
18176;SDS011;9213;50.858;3.964;2023-03-03T15:13:51;13.33;;;9.57;;
18176;SDS011;9213;50.858;3.964;2023-03-03T15:16:18;11.37;;;9.00;;
18176;SDS011;9213;50.858;3.964;2023-03-03T15:18:59;13.67;;;10.20;;
18176;SDS011;9213;50.858;3.964;2023-03-03T15:21:52;14.20;;;10.30;;
18176;SDS011;9213;50.858;3.964;2023-03-03T15:24:26;15.13;;;10.97;;